sensor_id;sensor_type;location;lat;lon;timestamp;P1;durP1;ratioP1;P2;durP2;ratioP2
60999;SDS011;46879;45.658;11.814;2023-01-13T00:01:40;14.38;;;6.38;;
60999;SDS011;46879;45.658;11.814;2023-01-13T00:06:40;10.32;;;6.20;;
60999;SDS011;46879;45.658;11.814;2023-01-13T00:11:41;13.32;;;6.60;;
60999;SDS011;46879;45.658;11.814;2023-01-13T00:16:42;11.73;;;6.45;;
60999;SDS011;46879;45.658;11.814;2023-01-13T00:21:42;10.77;;;6.10;;
60999;SDS011;46879;45.658;11.814;2023-01-13T00:26:43;9.95;;;5.97;;
60999;SDS011;46879;45.658;11.814;2023-01-13T00:31:43;8.55;;;5.80;;
60999;SDS011;46879;45.658;11.814;2023-01-13T00:36:44;9.50;;;5.75;;
60999;SDS011;46879;45.658;11.814;2023-01-13T00:41:45;10.35;;;5.90;;
60999;SDS011;46879;45.658;11.814;2023-01-13T00:47:07;10.77;;;6.20;;
60999;SDS011;46879;45.658;11.814;2023-01-13T00:52:08;13.55;;;6.18;;
60999;SDS011;46879;45.658;11.814;2023-01-13T00:57:08;8.10;;;5.68;;
60999;SDS011;46879;45.658;11.814;2023-01-13T01:02:09;8.48;;;5.53;;
60999;SDS011;46879;45.658;11.814;2023-01-13T01:07:09;7.78;;;5.40;;
60999;SDS011;46879;45.658;11.814;2023-01-13T01:12:10;9.23;;;5.90;;
60999;SDS011;46879;45.658;11.814;2023-01-13T01:17:10;11.35;;;5.95;;
60999;SDS011;46879;45.658;11.814;2023-01-13T01:22:11;8.05;;;5.38;;
60999;SDS011;46879;45.658;11.814;2023-01-13T01:27:11;14.60;;;5.70;;
60999;SDS011;46879;45.658;11.814;2023-01-13T01:32:12;9.77;;;5.95;;
60999;SDS011;46879;45.658;11.814;2023-01-13T01:37:13;12.65;;;6.13;;
60999;SDS011;46879;45.658;11.814;2023-01-13T01:42:17;8.77;;;5.72;;
60999;SDS011;46879;45.658;11.814;2023-01-13T01:47:36;9.75;;;5.93;;
60999;SDS011;46879;45.658;11.814;2023-01-13T01:52:38;10.23;;;5.65;;
60999;SDS011;46879;45.658;11.814;2023-01-13T01:57:50;6.05;;;5.03;;
60999;SDS011;46879;45.658;11.814;2023-01-13T02:02:56;11.38;;;5.85;;
60999;SDS011;46879;45.658;11.814;2023-01-13T02:07:59;8.35;;;5.53;;
60999;SDS011;46879;45.658;11.814;2023-01-13T02:13:02;10.40;;;5.43;;
60999;SDS011;46879;45.658;11.814;2023-01-13T02:18:14;8.63;;;5.43;;
60999;SDS011;46879;45.658;11.814;2023-01-13T02:40:55;9.82;;;5.20;;
60999;SDS011;46879;45.658;11.814;2023-01-13T02:46:27;10.52;;;5.05;;
60999;SDS011;46879;45.658;11.814;2023-01-13T02:51:33;6.60;;;4.53;;
60999;SDS011;46879;45.658;11.814;2023-01-13T02:56:36;6.68;;;4.68;;
60999;SDS011;46879;45.658;11.814;2023-01-13T03:01:41;8.10;;;5.72;;
60999;SDS011;46879;45.658;11.814;2023-01-13T03:12:28;8.85;;;5.25;;
60999;SDS011;46879;45.658;11.814;2023-01-13T03:22:46;9.00;;;5.37;;
60999;SDS011;46879;45.658;11.814;2023-01-13T03:28:18;7.32;;;5.30;;
60999;SDS011;46879;45.658;11.814;2023-01-13T03:33:31;8.55;;;5.20;;
60999;SDS011;46879;45.658;11.814;2023-01-13T03:38:38;6.97;;;5.00;;
60999;SDS011;46879;45.658;11.814;2023-01-13T03:43:53;7.38;;;4.97;;
60999;SDS011;46879;45.658;11.814;2023-01-13T03:55:14;7.32;;;4.88;;
60999;SDS011;46879;45.658;11.814;2023-01-13T04:00:18;7.30;;;5.00;;
60999;SDS011;46879;45.658;11.814;2023-01-13T04:05:24;8.90;;;5.13;;
60999;SDS011;46879;45.658;11.814;2023-01-13T04:11:01;6.93;;;4.75;;
60999;SDS011;46879;45.658;11.814;2023-01-13T04:16:08;7.72;;;5.05;;
60999;SDS011;46879;45.658;11.814;2023-01-13T04:21:10;7.07;;;4.70;;
60999;SDS011;46879;45.658;11.814;2023-01-13T04:26:11;6.82;;;5.05;;
60999;SDS011;46879;45.658;11.814;2023-01-13T04:31:11;6.80;;;5.07;;
60999;SDS011;46879;45.658;11.814;2023-01-13T04:36:12;7.90;;;5.47;;
60999;SDS011;46879;45.658;11.814;2023-01-13T04:41:13;6.95;;;4.45;;
60999;SDS011;46879;45.658;11.814;2023-01-13T04:46:13;6.88;;;4.40;;
60999;SDS011;46879;45.658;11.814;2023-01-13T04:51:14;5.00;;;4.28;;
60999;SDS011;46879;45.658;11.814;2023-01-13T04:56:14;6.32;;;4.78;;
60999;SDS011;46879;45.658;11.814;2023-01-13T05:01:15;7.18;;;4.60;;
60999;SDS011;46879;45.658;11.814;2023-01-13T05:06:16;8.80;;;4.90;;
60999;SDS011;46879;45.658;11.814;2023-01-13T05:11:16;5.05;;;4.30;;
60999;SDS011;46879;45.658;11.814;2023-01-13T05:16:35;5.47;;;4.35;;
60999;SDS011;46879;45.658;11.814;2023-01-13T05:21:54;5.82;;;4.43;;
60999;SDS011;46879;45.658;11.814;2023-01-13T05:27:15;9.65;;;4.43;;
60999;SDS011;46879;45.658;11.814;2023-01-13T05:32:15;6.18;;;4.03;;
60999;SDS011;46879;45.658;11.814;2023-01-13T05:37:16;5.72;;;4.25;;
60999;SDS011;46879;45.658;11.814;2023-01-13T05:42:17;6.03;;;4.22;;
60999;SDS011;46879;45.658;11.814;2023-01-13T05:47:36;5.47;;;4.38;;
60999;SDS011;46879;45.658;11.814;2023-01-13T05:52:36;4.90;;;4.10;;
60999;SDS011;46879;45.658;11.814;2023-01-13T05:57:37;5.70;;;4.43;;
60999;SDS011;46879;45.658;11.814;2023-01-13T06:02:37;5.03;;;4.10;;
60999;SDS011;46879;45.658;11.814;2023-01-13T06:07:38;6.57;;;4.50;;
60999;SDS011;46879;45.658;11.814;2023-01-13T06:12:39;6.47;;;4.47;;
60999;SDS011;46879;45.658;11.814;2023-01-13T06:17:39;6.00;;;4.03;;
60999;SDS011;46879;45.658;11.814;2023-01-13T06:22:41;4.90;;;4.00;;
60999;SDS011;46879;45.658;11.814;2023-01-13T06:27:46;6.18;;;4.78;;
60999;SDS011;46879;45.658;11.814;2023-01-13T06:32:53;10.55;;;6.07;;
60999;SDS011;46879;45.658;11.814;2023-01-13T06:37:57;13.48;;;6.85;;
60999;SDS011;46879;45.658;11.814;2023-01-13T06:43:00;13.77;;;7.53;;
60999;SDS011;46879;45.658;11.814;2023-01-13T06:48:16;13.38;;;7.07;;
60999;SDS011;46879;45.658;11.814;2023-01-13T06:53:20;12.35;;;8.00;;
60999;SDS011;46879;45.658;11.814;2023-01-13T06:58:21;21.15;;;7.65;;
60999;SDS011;46879;45.658;11.814;2023-01-13T07:03:22;15.27;;;7.25;;
60999;SDS011;46879;45.658;11.814;2023-01-13T07:08:22;16.17;;;7.55;;
60999;SDS011;46879;45.658;11.814;2023-01-13T07:13:23;17.60;;;8.32;;
60999;SDS011;46879;45.658;11.814;2023-01-13T07:18:43;16.63;;;7.35;;
60999;SDS011;46879;45.658;11.814;2023-01-13T07:23:43;16.75;;;8.45;;
60999;SDS011;46879;45.658;11.814;2023-01-13T07:28:45;15.55;;;7.43;;
60999;SDS011;46879;45.658;11.814;2023-01-13T07:33:46;16.48;;;7.07;;
60999;SDS011;46879;45.658;11.814;2023-01-13T07:38:47;15.02;;;7.35;;
60999;SDS011;46879;45.658;11.814;2023-01-13T07:43:47;13.80;;;8.13;;
60999;SDS011;46879;45.658;11.814;2023-01-13T07:48:48;11.68;;;7.15;;
60999;SDS011;46879;45.658;11.814;2023-01-13T07:53:48;15.88;;;7.38;;
60999;SDS011;46879;45.658;11.814;2023-01-13T07:58:49;10.75;;;7.28;;
60999;SDS011;46879;45.658;11.814;2023-01-13T08:03:52;14.43;;;6.85;;
60999;SDS011;46879;45.658;11.814;2023-01-13T08:08:53;17.13;;;8.00;;
60999;SDS011;46879;45.658;11.814;2023-01-13T08:13:54;10.73;;;7.05;;
60999;SDS011;46879;45.658;11.814;2023-01-13T08:18:57;10.15;;;6.35;;
60999;SDS011;46879;45.658;11.814;2023-01-13T08:23:57;12.25;;;6.90;;
60999;SDS011;46879;45.658;11.814;2023-01-13T08:28:58;13.23;;;7.00;;
60999;SDS011;46879;45.658;11.814;2023-01-13T08:33:58;9.38;;;6.55;;
60999;SDS011;46879;45.658;11.814;2023-01-13T08:38:59;9.13;;;6.90;;
60999;SDS011;46879;45.658;11.814;2023-01-13T08:44:00;9.38;;;7.25;;
60999;SDS011;46879;45.658;11.814;2023-01-13T08:49:00;8.75;;;6.32;;
60999;SDS011;46879;45.658;11.814;2023-01-13T08:54:01;10.00;;;6.80;;
60999;SDS011;46879;45.658;11.814;2023-01-13T08:59:02;8.88;;;6.88;;
60999;SDS011;46879;45.658;11.814;2023-01-13T09:04:03;11.35;;;7.03;;
60999;SDS011;46879;45.658;11.814;2023-01-13T09:09:04;10.98;;;6.60;;
60999;SDS011;46879;45.658;11.814;2023-01-13T09:14:05;10.73;;;6.28;;
60999;SDS011;46879;45.658;11.814;2023-01-13T09:19:05;12.23;;;7.10;;
60999;SDS011;46879;45.658;11.814;2023-01-13T09:24:06;10.65;;;6.93;;
60999;SDS011;46879;45.658;11.814;2023-01-13T09:29:07;12.35;;;6.72;;
60999;SDS011;46879;45.658;11.814;2023-01-13T09:34:15;8.05;;;7.03;;
60999;SDS011;46879;45.658;11.814;2023-01-13T09:39:36;10.68;;;6.30;;
60999;SDS011;46879;45.658;11.814;2023-01-13T09:44:51;10.50;;;6.78;;
60999;SDS011;46879;45.658;11.814;2023-01-13T09:55:17;10.90;;;6.50;;
60999;SDS011;46879;45.658;11.814;2023-01-13T10:00:38;10.05;;;6.43;;
60999;SDS011;46879;45.658;11.814;2023-01-13T10:11:21;7.63;;;5.88;;
60999;SDS011;46879;45.658;11.814;2023-01-13T10:27:03;8.60;;;5.88;;
60999;SDS011;46879;45.658;11.814;2023-01-13T10:32:11;9.27;;;6.60;;
60999;SDS011;46879;45.658;11.814;2023-01-13T10:37:18;13.60;;;6.57;;
60999;SDS011;46879;45.658;11.814;2023-01-13T10:42:25;9.70;;;6.00;;
60999;SDS011;46879;45.658;11.814;2023-01-13T10:47:30;9.77;;;6.32;;
60999;SDS011;46879;45.658;11.814;2023-01-13T10:52:34;7.82;;;6.00;;
60999;SDS011;46879;45.658;11.814;2023-01-13T10:57:42;10.18;;;6.75;;
60999;SDS011;46879;45.658;11.814;2023-01-13T11:02:42;10.60;;;5.70;;
60999;SDS011;46879;45.658;11.814;2023-01-13T11:07:45;8.23;;;6.05;;
60999;SDS011;46879;45.658;11.814;2023-01-13T11:18:23;9.57;;;6.30;;
60999;SDS011;46879;45.658;11.814;2023-01-13T11:35:15;10.07;;;6.18;;
60999;SDS011;46879;45.658;11.814;2023-01-13T11:40:35;11.93;;;6.18;;
60999;SDS011;46879;45.658;11.814;2023-01-13T12:12:39;8.15;;;6.05;;
60999;SDS011;46879;45.658;11.814;2023-01-13T12:18:16;8.10;;;6.32;;
60999;SDS011;46879;45.658;11.814;2023-01-13T12:29:18;9.55;;;6.25;;
60999;SDS011;46879;45.658;11.814;2023-01-13T12:55:23;8.75;;;6.40;;
60999;SDS011;46879;45.658;11.814;2023-01-13T13:00:51;7.70;;;6.22;;
60999;SDS011;46879;45.658;11.814;2023-01-13T13:06:18;8.77;;;6.13;;
60999;SDS011;46879;45.658;11.814;2023-01-13T13:11:33;9.48;;;6.10;;
60999;SDS011;46879;45.658;11.814;2023-01-13T13:17:03;7.70;;;5.93;;
60999;SDS011;46879;45.658;11.814;2023-01-13T13:22:36;8.95;;;6.25;;
60999;SDS011;46879;45.658;11.814;2023-01-13T13:27:44;7.63;;;6.05;;
60999;SDS011;46879;45.658;11.814;2023-01-13T13:39:01;7.10;;;5.55;;
60999;SDS011;46879;45.658;11.814;2023-01-13T13:44:39;8.02;;;6.18;;
60999;SDS011;46879;45.658;11.814;2023-01-13T13:50:08;10.13;;;5.65;;
60999;SDS011;46879;45.658;11.814;2023-01-13T13:55:22;7.45;;;6.13;;
60999;SDS011;46879;45.658;11.814;2023-01-13T14:00:34;7.05;;;5.30;;
60999;SDS011;46879;45.658;11.814;2023-01-13T14:05:37;8.38;;;6.05;;
60999;SDS011;46879;45.658;11.814;2023-01-13T14:10:38;9.82;;;6.53;;
60999;SDS011;46879;45.658;11.814;2023-01-13T14:15:42;9.10;;;6.20;;
60999;SDS011;46879;45.658;11.814;2023-01-13T14:20:50;7.45;;;6.55;;
60999;SDS011;46879;45.658;11.814;2023-01-13T14:26:16;8.50;;;7.05;;
60999;SDS011;46879;45.658;11.814;2023-01-13T14:36:19;9.70;;;6.75;;
60999;SDS011;46879;45.658;11.814;2023-01-13T14:41:35;9.38;;;6.68;;
60999;SDS011;46879;45.658;11.814;2023-01-13T14:46:43;8.55;;;6.03;;
60999;SDS011;46879;45.658;11.814;2023-01-13T14:51:44;7.97;;;6.53;;
60999;SDS011;46879;45.658;11.814;2023-01-13T14:56:49;8.30;;;5.88;;
60999;SDS011;46879;45.658;11.814;2023-01-13T15:01:52;9.38;;;6.20;;
60999;SDS011;46879;45.658;11.814;2023-01-13T15:06:54;7.93;;;6.18;;
60999;SDS011;46879;45.658;11.814;2023-01-13T15:11:56;9.88;;;6.43;;
60999;SDS011;46879;45.658;11.814;2023-01-13T15:17:15;9.85;;;6.18;;
60999;SDS011;46879;45.658;11.814;2023-01-13T15:22:17;7.82;;;6.15;;
60999;SDS011;46879;45.658;11.814;2023-01-13T15:27:19;7.05;;;5.93;;
60999;SDS011;46879;45.658;11.814;2023-01-13T15:32:24;8.68;;;5.97;;
60999;SDS011;46879;45.658;11.814;2023-01-13T15:37:25;7.18;;;5.80;;
60999;SDS011;46879;45.658;11.814;2023-01-13T15:42:25;7.68;;;5.88;;
60999;SDS011;46879;45.658;11.814;2023-01-13T15:47:44;14.32;;;6.13;;
60999;SDS011;46879;45.658;11.814;2023-01-13T15:52:45;8.95;;;5.97;;
60999;SDS011;46879;45.658;11.814;2023-01-13T15:57:47;10.38;;;6.53;;
60999;SDS011;46879;45.658;11.814;2023-01-13T16:02:50;8.88;;;5.75;;
60999;SDS011;46879;45.658;11.814;2023-01-13T16:07:50;9.18;;;5.95;;
60999;SDS011;46879;45.658;11.814;2023-01-13T16:12:51;10.13;;;5.78;;
60999;SDS011;46879;45.658;11.814;2023-01-13T16:17:55;7.53;;;5.72;;
60999;SDS011;46879;45.658;11.814;2023-01-13T16:22:58;9.25;;;6.10;;
60999;SDS011;46879;45.658;11.814;2023-01-13T16:27:59;9.52;;;5.82;;
60999;SDS011;46879;45.658;11.814;2023-01-13T16:32:59;8.63;;;5.63;;
60999;SDS011;46879;45.658;11.814;2023-01-13T16:38:01;10.40;;;5.55;;
60999;SDS011;46879;45.658;11.814;2023-01-13T16:43:02;8.05;;;5.63;;
60999;SDS011;46879;45.658;11.814;2023-01-13T16:48:05;9.52;;;5.68;;
60999;SDS011;46879;45.658;11.814;2023-01-13T16:53:16;7.90;;;5.45;;
60999;SDS011;46879;45.658;11.814;2023-01-13T16:58:17;9.15;;;5.63;;
60999;SDS011;46879;45.658;11.814;2023-01-13T17:03:19;10.05;;;5.60;;
60999;SDS011;46879;45.658;11.814;2023-01-13T17:08:20;7.10;;;5.22;;
60999;SDS011;46879;45.658;11.814;2023-01-13T17:13:20;8.35;;;5.18;;
60999;SDS011;46879;45.658;11.814;2023-01-13T17:18:21;9.48;;;6.25;;
60999;SDS011;46879;45.658;11.814;2023-01-13T17:23:21;8.25;;;5.38;;
60999;SDS011;46879;45.658;11.814;2023-01-13T17:28:22;7.13;;;5.50;;
60999;SDS011;46879;45.658;11.814;2023-01-13T17:33:22;8.75;;;5.70;;
60999;SDS011;46879;45.658;11.814;2023-01-13T17:38:23;8.82;;;6.40;;
60999;SDS011;46879;45.658;11.814;2023-01-13T17:43:24;6.97;;;5.35;;
60999;SDS011;46879;45.658;11.814;2023-01-13T17:48:25;7.40;;;5.43;;
60999;SDS011;46879;45.658;11.814;2023-01-13T17:53:26;7.03;;;5.53;;
60999;SDS011;46879;45.658;11.814;2023-01-13T17:58:27;8.40;;;6.22;;
60999;SDS011;46879;45.658;11.814;2023-01-13T18:03:28;13.27;;;6.25;;
60999;SDS011;46879;45.658;11.814;2023-01-13T18:08:28;8.82;;;5.68;;
60999;SDS011;46879;45.658;11.814;2023-01-13T18:13:29;8.80;;;5.93;;
60999;SDS011;46879;45.658;11.814;2023-01-13T18:18:32;7.03;;;5.80;;
60999;SDS011;46879;45.658;11.814;2023-01-13T18:23:33;8.57;;;6.00;;
60999;SDS011;46879;45.658;11.814;2023-01-13T18:28:52;8.98;;;6.10;;
60999;SDS011;46879;45.658;11.814;2023-01-13T18:33:52;7.43;;;5.57;;
60999;SDS011;46879;45.658;11.814;2023-01-13T18:38:53;12.57;;;6.47;;
60999;SDS011;46879;45.658;11.814;2023-01-13T18:43:54;8.60;;;5.50;;
60999;SDS011;46879;45.658;11.814;2023-01-13T18:48:54;7.03;;;5.80;;
60999;SDS011;46879;45.658;11.814;2023-01-13T18:53:55;6.45;;;5.68;;
60999;SDS011;46879;45.658;11.814;2023-01-13T18:58:55;8.95;;;6.22;;
60999;SDS011;46879;45.658;11.814;2023-01-13T19:03:57;10.13;;;5.57;;
60999;SDS011;46879;45.658;11.814;2023-01-13T19:09:01;8.25;;;5.40;;
60999;SDS011;46879;45.658;11.814;2023-01-13T19:14:07;8.15;;;6.20;;
60999;SDS011;46879;45.658;11.814;2023-01-13T19:19:08;13.63;;;6.97;;
60999;SDS011;46879;45.658;11.814;2023-01-13T19:24:09;15.75;;;8.68;;
60999;SDS011;46879;45.658;11.814;2023-01-13T19:29:10;13.73;;;8.63;;
60999;SDS011;46879;45.658;11.814;2023-01-13T19:34:10;12.68;;;8.57;;
60999;SDS011;46879;45.658;11.814;2023-01-13T19:39:11;14.95;;;9.02;;
60999;SDS011;46879;45.658;11.814;2023-01-13T19:44:12;11.65;;;8.57;;
60999;SDS011;46879;45.658;11.814;2023-01-13T19:49:32;14.15;;;8.13;;
60999;SDS011;46879;45.658;11.814;2023-01-13T19:54:32;14.48;;;8.88;;
60999;SDS011;46879;45.658;11.814;2023-01-13T19:59:33;14.63;;;9.48;;
60999;SDS011;46879;45.658;11.814;2023-01-13T20:04:34;10.88;;;8.60;;
60999;SDS011;46879;45.658;11.814;2023-01-13T20:09:38;14.25;;;8.43;;
60999;SDS011;46879;45.658;11.814;2023-01-13T20:14:41;15.07;;;8.85;;
60999;SDS011;46879;45.658;11.814;2023-01-13T20:19:46;13.32;;;9.60;;
60999;SDS011;46879;45.658;11.814;2023-01-13T20:24:47;12.35;;;8.32;;
60999;SDS011;46879;45.658;11.814;2023-01-13T20:29:53;12.25;;;8.68;;
60999;SDS011;46879;45.658;11.814;2023-01-13T20:34:54;13.10;;;9.13;;
60999;SDS011;46879;45.658;11.814;2023-01-13T20:39:54;15.00;;;9.43;;
60999;SDS011;46879;45.658;11.814;2023-01-13T20:44:57;14.07;;;9.52;;
60999;SDS011;46879;45.658;11.814;2023-01-13T20:49:59;14.70;;;9.32;;
60999;SDS011;46879;45.658;11.814;2023-01-13T20:54:59;14.88;;;9.75;;
60999;SDS011;46879;45.658;11.814;2023-01-13T21:00:00;15.63;;;10.10;;
60999;SDS011;46879;45.658;11.814;2023-01-13T21:05:03;19.02;;;10.07;;
60999;SDS011;46879;45.658;11.814;2023-01-13T21:10:04;15.60;;;11.10;;
60999;SDS011;46879;45.658;11.814;2023-01-13T21:15:05;18.05;;;10.88;;
60999;SDS011;46879;45.658;11.814;2023-01-13T21:20:19;16.17;;;10.15;;
60999;SDS011;46879;45.658;11.814;2023-01-13T21:25:19;14.98;;;10.18;;
60999;SDS011;46879;45.658;11.814;2023-01-13T21:30:22;17.38;;;11.23;;
60999;SDS011;46879;45.658;11.814;2023-01-13T21:35:23;15.00;;;10.65;;
60999;SDS011;46879;45.658;11.814;2023-01-13T21:40:23;16.63;;;10.63;;
60999;SDS011;46879;45.658;11.814;2023-01-13T21:45:24;17.20;;;11.27;;
60999;SDS011;46879;45.658;11.814;2023-01-13T21:55:44;20.33;;;12.27;;
60999;SDS011;46879;45.658;11.814;2023-01-13T22:00:51;15.95;;;11.50;;
60999;SDS011;46879;45.658;11.814;2023-01-13T22:05:53;16.30;;;11.52;;
60999;SDS011;46879;45.658;11.814;2023-01-13T22:10:54;21.70;;;11.93;;
60999;SDS011;46879;45.658;11.814;2023-01-13T22:16:01;22.05;;;12.57;;
60999;SDS011;46879;45.658;11.814;2023-01-13T22:21:03;23.13;;;10.52;;
60999;SDS011;46879;45.658;11.814;2023-01-13T22:26:05;23.92;;;12.07;;
60999;SDS011;46879;45.658;11.814;2023-01-13T22:31:11;24.83;;;11.98;;
60999;SDS011;46879;45.658;11.814;2023-01-13T22:36:14;32.20;;;12.40;;
60999;SDS011;46879;45.658;11.814;2023-01-13T22:41:14;19.58;;;10.85;;
60999;SDS011;46879;45.658;11.814;2023-01-13T22:46:15;27.02;;;11.13;;
60999;SDS011;46879;45.658;11.814;2023-01-13T22:51:16;17.95;;;11.55;;
60999;SDS011;46879;45.658;11.814;2023-01-13T22:56:18;16.98;;;11.38;;
60999;SDS011;46879;45.658;11.814;2023-01-13T23:01:21;17.33;;;11.05;;
60999;SDS011;46879;45.658;11.814;2023-01-13T23:06:24;16.83;;;10.25;;
60999;SDS011;46879;45.658;11.814;2023-01-13T23:11:27;18.83;;;11.38;;
60999;SDS011;46879;45.658;11.814;2023-01-13T23:16:29;19.83;;;11.70;;
60999;SDS011;46879;45.658;11.814;2023-01-13T23:21:33;16.20;;;10.70;;
60999;SDS011;46879;45.658;11.814;2023-01-13T23:26:36;18.20;;;10.73;;
60999;SDS011;46879;45.658;11.814;2023-01-13T23:31:36;16.15;;;10.20;;
60999;SDS011;46879;45.658;11.814;2023-01-13T23:36:37;19.63;;;11.05;;
60999;SDS011;46879;45.658;11.814;2023-01-13T23:41:40;18.33;;;11.05;;
60999;SDS011;46879;45.658;11.814;2023-01-13T23:46:41;17.77;;;10.02;;
60999;SDS011;46879;45.658;11.814;2023-01-13T23:51:41;15.23;;;10.88;;
60999;SDS011;46879;45.658;11.814;2023-01-13T23:56:42;17.02;;;11.23;;
